Terminal Aerodrome Forecast
Issued by NWS Sterling, VA

Current Version | Previous Version | Text Only | Print | Product List | Glossary On
Versions: 1 2 3 4 5 6 7 8 9 10 11 12 13 14 15 16 17 18 19 20 21 22 23
000
FTUS41 KLWX 252321
TAFIAD
TAF
KIAD 252321Z 2600/2706 24005KT P6SM VCSH SCT060 SCT200
     FM260600 VRB03KT P6SM BKN060
     FM261300 30006KT P6SM BKN060=

USA.gov is the U.S. government's official web portal to all federal, state and local government web resources and services.